Time;durP1;ratioP1;P1;durP2;ratioP2;P2;SDS_P1;SDS_P2;PMS_P1;PMS_P2;Temp;Humidity;BMP_temperature;BMP_pressure;BME280_temperature;BME280_humidity;BME280_pressure;Samples;Min_cycle;Max_cycle;Signal;HPM_P1;HPM_P2
2022/03/04 00:01:09;;;;;;;21.90;10.32;;;1.30;99.90;;;;;;5015825;28;20026;-50
2022/03/04 00:03:35;;;;;;;27.05;11.45;;;1.20;99.90;;;;;;5015147;28;20045;-53
2022/03/04 00:06:01;;;;;;;27.02;11.73;;;1.10;99.90;;;;;;5014477;28;20022;-51
2022/03/04 00:08:26;;;;;;;27.85;12.15;;;1.00;99.90;;;;;;5015759;28;20022;-52
2022/03/04 00:10:52;;;;;;;24.83;11.43;;;1.00;99.90;;;;;;5015676;28;20081;-53
2022/03/04 00:13:18;;;;;;;32.30;11.52;;;1.00;99.90;;;;;;5015714;28;20026;-50
2022/03/04 00:15:44;;;;;;;27.52;12.18;;;1.10;99.90;;;;;;5015792;28;20104;-49
2022/03/04 00:18:09;;;;;;;26.95;11.23;;;1.10;99.90;;;;;;5015616;28;20105;-51
2022/03/04 00:20:35;;;;;;;29.77;11.50;;;1.10;99.90;;;;;;5015477;28;20026;-51
2022/03/04 00:26:23;;;;;;;25.90;8.77;;;1.10;99.90;;;;;;5015614;28;20037;-52
2022/03/04 00:28:48;;;;;;;21.70;10.10;;;1.10;99.90;;;;;;5015392;28;20139;-50
2022/03/04 00:31:14;;;;;;;22.08;9.98;;;1.10;99.90;;;;;;5015302;28;20157;-50
2022/03/04 00:33:39;;;;;;;23.55;10.38;;;1.20;99.90;;;;;;5014396;28;20026;-52
2022/03/04 00:36:05;;;;;;;31.75;12.20;;;1.20;99.90;;;;;;5015299;28;20092;-50
2022/03/04 00:38:30;;;;;;;26.75;11.23;;;1.10;99.90;;;;;;5015322;28;20049;-51
2022/03/04 00:40:56;;;;;;;26.35;10.35;;;1.10;99.90;;;;;;5014001;28;20018;-50
2022/03/04 00:43:22;;;;;;;24.30;10.50;;;1.00;99.90;;;;;;5015037;28;20021;-52
2022/03/04 00:45:47;;;;;;;28.85;11.30;;;1.00;99.90;;;;;;5014975;28;20424;-53
2022/03/04 00:48:13;;;;;;;22.52;9.50;;;0.90;99.90;;;;;;5013818;28;20022;-54
2022/03/04 00:50:39;;;;;;;26.95;10.52;;;0.90;99.90;;;;;;5015074;28;20032;-52
2022/03/04 00:53:04;;;;;;;26.10;10.75;;;0.90;99.90;;;;;;5013924;28;20125;-54
2022/03/04 00:55:30;;;;;;;27.13;9.98;;;0.90;99.90;;;;;;5013553;28;20431;-52
2022/03/04 00:57:55;;;;;;;25.42;10.25;;;0.80;99.90;;;;;;5013806;28;20033;-51
2022/03/04 01:00:21;;;;;;;24.23;9.95;;;0.90;99.90;;;;;;5013780;28;20480;-52
2022/03/04 01:02:47;;;;;;;27.38;10.63;;;0.90;99.90;;;;;;5013712;28;20072;-52
2022/03/04 01:05:12;;;;;;;24.88;10.45;;;0.90;99.90;;;;;;5014640;28;20025;-52
2022/03/04 01:07:38;;;;;;;24.33;10.38;;;0.90;99.90;;;;;;5014706;28;20029;-50
2022/03/04 01:10:04;;;;;;;23.88;9.98;;;0.90;99.90;;;;;;5013324;28;20026;-53
2022/03/04 01:12:29;;;;;;;24.08;10.52;;;0.90;99.90;;;;;;5014870;28;20099;-51
2022/03/04 01:14:55;;;;;;;25.85;10.30;;;0.70;99.90;;;;;;5014721;28;20104;-55
2022/03/04 01:17:21;;;;;;;23.27;10.38;;;0.60;99.90;;;;;;5013267;28;20052;-51
2022/03/04 01:19:47;;;;;;;24.48;9.57;;;0.50;99.90;;;;;;5014338;28;20026;-51
2022/03/04 01:22:12;;;;;;;22.98;10.05;;;0.50;99.90;;;;;;5014330;28;20017;-51
2022/03/04 01:24:38;;;;;;;27.63;11.10;;;0.40;99.90;;;;;;5014323;28;20026;-54
2022/03/04 01:27:03;;;;;;;28.63;11.35;;;0.30;99.90;;;;;;5013012;28;20025;-54
2022/03/04 01:29:29;;;;;;;22.42;10.48;;;0.30;99.90;;;;;;5013062;28;20030;-56
2022/03/04 01:31:54;;;;;;;21.73;10.32;;;0.30;99.90;;;;;;5013254;28;20029;-56
2022/03/04 01:34:20;;;;;;;23.45;9.75;;;0.30;99.90;;;;;;5012461;28;20120;-55
2022/03/04 01:36:46;;;;;;;23.50;9.93;;;0.30;99.90;;;;;;5013954;28;20033;-54
2022/03/04 01:39:11;;;;;;;23.42;9.77;;;0.40;99.90;;;;;;5014034;28;20043;-52
2022/03/04 01:41:37;;;;;;;25.45;9.60;;;0.30;99.90;;;;;;5014197;28;20476;-53
2022/03/04 01:44:02;;;;;;;32.00;10.18;;;0.40;99.90;;;;;;5013971;28;20049;-56
2022/03/04 01:46:30;;;;;;;24.67;9.73;;;0.30;99.90;;;;;;5013980;28;20051;-51
2022/03/04 01:48:56;;;;;;;27.13;9.88;;;0.30;99.90;;;;;;5014282;28;20026;-54
2022/03/04 01:51:22;;;;;;;27.45;9.63;;;0.20;99.90;;;;;;5012753;28;20077;-52
2022/03/04 01:53:47;;;;;;;25.25;9.45;;;0.30;99.90;;;;;;5013942;28;20033;-52
2022/03/04 01:56:13;;;;;;;25.85;10.60;;;0.30;99.90;;;;;;5013883;28;20030;-53
2022/03/04 01:58:39;;;;;;;23.20;9.82;;;0.20;99.90;;;;;;5013782;28;20088;-51
2022/03/04 02:01:05;;;;;;;23.65;9.95;;;0.10;99.90;;;;;;5013741;28;20040;-56
2022/03/04 02:03:31;;;;;;;23.92;10.85;;;0.00;99.90;;;;;;5012593;28;20032;-52
2022/03/04 02:05:56;;;;;;;24.70;8.85;;;0.10;99.90;;;;;;5013681;28;20022;-53
2022/03/04 02:08:22;;;;;;;21.23;9.30;;;0.10;99.90;;;;;;5013207;28;20024;-53
2022/03/04 02:10:48;;;;;;;23.30;10.68;;;0.20;99.90;;;;;;5013606;28;20101;-53
2022/03/04 02:13:14;;;;;;;21.30;8.95;;;0.10;99.90;;;;;;5012354;28;20029;-51
2022/03/04 02:15:42;;;;;;;23.30;9.77;;;0.10;99.90;;;;;;5012551;28;20093;-49
2022/03/04 02:18:17;;;;;;;22.83;9.65;;;0.10;99.90;;;;;;5012842;28;20121;-52
2022/03/04 02:20:46;;;;;;;25.23;9.35;;;0.10;99.90;;;;;;5013614;28;20079;-50
2022/03/04 02:23:14;;;;;;;24.13;9.68;;;0.00;99.90;;;;;;5013472;28;20026;-49
2022/03/04 02:25:44;;;;;;;29.38;9.27;;;-0.20;99.90;;;;;;5012274;28;20026;-51
2022/03/04 02:28:10;;;;;;;18.77;9.25;;;-0.30;99.90;;;;;;5012205;28;20072;-50
2022/03/04 02:30:36;;;;;;;28.73;9.57;;;-0.20;99.90;;;;;;5012489;28;20097;-50
2022/03/04 02:33:06;;;;;;;22.17;9.38;;;-0.10;99.90;;;;;;5012213;28;20033;-51
2022/03/04 02:35:33;;;;;;;24.27;10.25;;;-0.10;99.90;;;;;;5013379;28;20084;-49
2022/03/04 02:37:59;;;;;;;24.80;10.15;;;-0.20;99.90;;;;;;5013381;28;20109;-51
2022/03/04 02:40:25;;;;;;;28.27;9.38;;;-0.30;99.90;;;;;;5013601;28;20448;-51
2022/03/04 02:42:50;;;;;;;24.45;10.13;;;-0.30;99.90;;;;;;5012329;28;20028;-49
2022/03/04 02:45:16;;;;;;;24.25;9.77;;;-0.30;99.90;;;;;;5013924;28;20029;-53
2022/03/04 02:47:42;;;;;;;22.95;9.23;;;-0.20;99.90;;;;;;5017366;28;20022;-50
2022/03/04 02:50:08;;;;;;;22.23;9.23;;;-0.20;99.90;;;;;;5017223;28;20051;-51
2022/03/04 02:53:26;;;;;;;22.80;10.23;;;-0.10;99.90;;;;;;5017037;28;20030;-54
2022/03/04 02:55:51;;;;;;;25.75;9.68;;;-0.10;99.90;;;;;;5015901;28;20103;-51
2022/03/04 02:58:17;;;;;;;28.02;10.80;;;-0.20;99.90;;;;;;5017325;28;20077;-51
2022/03/04 03:00:43;;;;;;;22.25;9.85;;;-0.30;99.90;;;;;;5016078;28;20033;-51
2022/03/04 03:03:08;;;;;;;25.73;9.75;;;-0.50;99.90;;;;;;5016978;28;20029;-50
2022/03/04 03:05:34;;;;;;;20.98;9.70;;;-0.40;99.90;;;;;;5017274;28;20115;-52
2022/03/04 03:07:59;;;;;;;28.13;11.07;;;-0.40;99.90;;;;;;5016958;28;20026;-52
2022/03/04 03:10:25;;;;;;;25.05;8.85;;;-0.40;99.90;;;;;;5015609;28;20491;-53
2022/03/04 03:12:51;;;;;;;21.83;9.63;;;-0.40;99.90;;;;;;5015605;28;20028;-49
2022/03/04 03:15:17;;;;;;;31.40;10.18;;;-0.40;99.90;;;;;;5016728;28;20124;-51
2022/03/04 03:17:43;;;;;;;31.17;9.98;;;-0.50;99.90;;;;;;5017009;28;20022;-52
2022/03/04 03:20:09;;;;;;;27.70;9.38;;;-0.40;99.90;;;;;;5016529;28;20022;-53
2022/03/04 03:22:34;;;;;;;25.70;9.93;;;-0.40;99.90;;;;;;5016711;28;20026;-49
2022/03/04 03:25:00;;;;;;;25.70;9.68;;;-0.40;99.90;;;;;;5015310;28;20439;-51
2022/03/04 03:27:26;;;;;;;22.65;10.45;;;-0.50;99.90;;;;;;5015152;28;20117;-51
2022/03/04 03:29:51;;;;;;;27.40;10.05;;;-0.60;99.90;;;;;;5015537;28;20116;-50
2022/03/04 03:32:17;;;;;;;24.27;9.75;;;-0.70;99.90;;;;;;5016799;28;20026;-54
2022/03/04 03:34:43;;;;;;;28.27;10.43;;;-0.60;99.90;;;;;;5016275;28;20025;-51
2022/03/04 03:37:09;;;;;;;23.90;9.68;;;-0.60;99.90;;;;;;5016255;28;20061;-50
2022/03/04 03:39:36;;;;;;;26.10;10.18;;;-0.40;99.90;;;;;;5016260;28;20033;-52
2022/03/04 03:42:02;;;;;;;28.65;9.90;;;-0.50;99.90;;;;;;5014956;28;20138;-51
2022/03/04 03:44:28;;;;;;;24.92;9.57;;;-0.60;99.90;;;;;;5015045;28;20110;-51
2022/03/04 03:46:54;;;;;;;26.52;10.07;;;-0.70;99.90;;;;;;5015225;28;20116;-50
2022/03/04 03:49:20;;;;;;;23.00;9.25;;;-0.80;99.90;;;;;;5014832;28;20026;-49
2022/03/04 03:51:46;;;;;;;23.17;9.48;;;-0.70;99.90;;;;;;5016152;28;20052;-50
2022/03/04 03:54:11;;;;;;;23.40;10.43;;;-0.70;99.90;;;;;;5016245;28;20026;-49
2022/03/04 03:56:38;;;;;;;33.85;10.60;;;-0.80;99.90;;;;;;5015344;28;20026;-52
2022/03/04 03:59:03;;;;;;;25.00;9.68;;;-0.70;99.90;;;;;;5015084;28;20036;-51
2022/03/04 04:01:29;;;;;;;25.35;10.35;;;-0.70;99.90;;;;;;5015894;28;20022;-50
2022/03/04 04:03:55;;;;;;;25.45;10.77;;;-0.70;99.90;;;;;;5014651;28;20030;-51
2022/03/04 04:06:20;;;;;;;26.13;10.13;;;-0.60;99.90;;;;;;5016079;28;20073;-49
2022/03/04 04:08:46;;;;;;;25.67;10.50;;;-0.70;99.90;;;;;;5016347;28;20077;-49
2022/03/04 04:11:12;;;;;;;24.23;8.93;;;-0.60;99.90;;;;;;5014478;28;20083;-50
2022/03/04 04:13:38;;;;;;;20.13;9.15;;;-0.60;99.90;;;;;;5014508;28;20030;-49
2022/03/04 04:16:04;;;;;;;25.67;9.70;;;-0.50;99.90;;;;;;5015664;28;20044;-49
2022/03/04 04:18:30;;;;;;;24.67;9.95;;;-0.60;99.90;;;;;;5014576;28;20029;-51
2022/03/04 04:20:56;;;;;;;23.10;9.70;;;-0.60;99.90;;;;;;5014333;28;20033;-54
2022/03/04 04:23:21;;;;;;;28.73;10.05;;;-0.60;99.90;;;;;;5014277;28;20018;-49
2022/03/04 04:25:47;;;;;;;26.02;9.50;;;-0.20;99.90;;;;;;5015466;28;20079;-53
2022/03/04 04:28:13;;;;;;;29.30;9.32;;;-0.10;99.90;;;;;;5015330;28;20048;-50
2022/03/04 04:30:38;;;;;;;24.67;10.27;;;-0.10;99.90;;;;;;5015409;28;20065;-52
2022/03/04 04:33:04;;;;;;;24.58;10.00;;;-0.20;99.90;;;;;;5014103;28;20026;-49
2022/03/04 04:35:29;;;;;;;25.80;10.10;;;-0.10;99.90;;;;;;5015178;28;20034;-49
2022/03/04 04:37:55;;;;;;;20.67;9.23;;;-0.10;99.90;;;;;;5013971;28;20392;-49
2022/03/04 04:40:21;;;;;;;26.27;10.25;;;-0.10;99.90;;;;;;5015664;28;20108;-52
2022/03/04 04:42:46;;;;;;;24.42;9.27;;;-0.10;99.90;;;;;;5013857;28;20053;-51
2022/03/04 04:45:12;;;;;;;27.48;10.60;;;-0.10;99.90;;;;;;5015000;28;20076;-53
2022/03/04 04:47:38;;;;;;;24.55;10.55;;;-0.10;99.90;;;;;;5015321;28;20068;-49
2022/03/04 04:50:15;;;;;;;25.83;10.68;;;-0.20;99.90;;;;;;5014975;28;20050;-51
2022/03/04 04:52:40;;;;;;;30.60;12.32;;;-0.40;99.90;;;;;;5015019;28;20061;-50
2022/03/04 04:55:06;;;;;;;22.90;9.95;;;-0.40;99.90;;;;;;5014826;28;20054;-54
2022/03/04 04:57:32;;;;;;;25.27;10.75;;;-0.50;99.90;;;;;;5013514;28;20022;-53
2022/03/04 04:59:57;;;;;;;23.13;9.80;;;-0.60;99.90;;;;;;5013559;28;20021;-51
2022/03/04 05:02:23;;;;;;;28.25;10.43;;;-0.70;99.90;;;;;;5014784;28;20084;-50
2022/03/04 05:04:49;;;;;;;25.92;10.90;;;-0.80;99.90;;;;;;5015117;28;20060;-55
2022/03/04 05:07:14;;;;;;;25.60;10.82;;;-0.80;99.90;;;;;;5014646;28;20072;-51
2022/03/04 05:09:40;;;;;;;24.67;9.90;;;-0.90;99.90;;;;;;5012778;28;20033;-53
2022/03/04 05:12:06;;;;;;;26.10;10.75;;;-1.00;99.90;;;;;;5014977;28;20029;-55
2022/03/04 05:14:32;;;;;;;25.30;10.45;;;-1.10;99.90;;;;;;5015132;28;20030;-52
2022/03/04 05:16:57;;;;;;;27.35;10.88;;;-1.10;99.90;;;;;;5014612;28;20026;-51
2022/03/04 05:19:23;;;;;;;25.67;10.15;;;-1.10;99.90;;;;;;5013419;28;20022;-50
2022/03/04 05:21:48;;;;;;;28.25;10.82;;;-1.10;99.90;;;;;;5014770;28;20022;-52
2022/03/04 05:24:14;;;;;;;24.88;9.60;;;-1.10;99.90;;;;;;5013356;28;20022;-52
2022/03/04 05:26:41;;;;;;;25.20;10.40;;;-1.10;99.90;;;;;;5014527;28;20045;-55
2022/03/04 05:29:10;;;;;;;29.73;10.25;;;-1.20;99.90;;;;;;5013091;28;20029;-55
2022/03/04 05:31:37;;;;;;;29.70;10.68;;;-1.10;99.90;;;;;;5014627;28;20026;-54
2022/03/04 05:34:03;;;;;;;25.40;10.48;;;-1.10;99.90;;;;;;5012969;28;20032;-56
2022/03/04 05:36:29;;;;;;;30.58;9.35;;;-1.20;99.90;;;;;;5013317;28;20128;-49
2022/03/04 05:38:55;;;;;;;29.92;9.70;;;-1.20;99.90;;;;;;5014080;28;20032;-54
2022/03/04 05:41:21;;;;;;;25.60;9.88;;;-1.20;99.90;;;;;;5013772;28;20030;-53
2022/03/04 05:43:47;;;;;;;31.10;10.05;;;-1.20;99.90;;;;;;5013099;28;20018;-54
2022/03/04 05:46:14;;;;;;;28.65;10.25;;;-1.30;99.90;;;;;;5013054;28;20026;-51
2022/03/04 05:48:40;;;;;;;27.10;10.07;;;-1.50;99.90;;;;;;5013999;28;20018;-51
2022/03/04 05:51:06;;;;;;;24.20;10.23;;;-1.50;99.90;;;;;;5014240;28;20018;-51
2022/03/04 05:53:32;;;;;;;25.27;10.27;;;-1.50;99.90;;;;;;5012739;28;20022;-54
2022/03/04 05:56:00;;;;;;;28.80;10.35;;;-1.50;99.90;;;;;;5012621;28;20163;-54
2022/03/04 05:58:26;;;;;;;25.83;10.15;;;-1.50;99.90;;;;;;5013822;28;20025;-51
2022/03/04 06:00:52;;;;;;;29.95;9.73;;;-1.40;99.90;;;;;;5013707;28;19972;-51
2022/03/04 06:03:18;;;;;;;24.58;9.73;;;-1.30;99.90;;;;;;5012737;28;20137;-56
2022/03/04 06:05:44;;;;;;;17.95;8.30;;;-1.40;99.90;;;;;;5013722;28;20018;-50
2022/03/04 06:08:10;;;;;;;26.67;10.40;;;-1.40;99.90;;;;;;5012503;28;20025;-53
2022/03/04 06:10:36;;;;;;;24.13;9.73;;;-1.40;99.90;;;;;;5012790;28;20033;-53
2022/03/04 06:13:02;;;;;;;22.00;9.60;;;-1.40;99.90;;;;;;5013244;28;20049;-50
2022/03/04 06:15:27;;;;;;;25.83;9.80;;;-1.40;99.90;;;;;;5012798;28;20022;-53
2022/03/04 06:17:54;;;;;;;27.88;9.55;;;-1.30;99.90;;;;;;5013614;28;20037;-53
2022/03/04 06:20:20;;;;;;;27.85;10.27;;;-1.20;99.90;;;;;;5013303;28;20022;-51
2022/03/04 06:22:46;;;;;;;32.67;12.70;;;-1.10;99.90;;;;;;5012463;28;20025;-54
2022/03/04 06:25:13;;;;;;;33.65;13.13;;;-1.00;99.90;;;;;;5012707;28;20026;-53
2022/03/04 06:28:00;;;;;;;28.05;11.30;;;-1.00;99.90;;;;;;5012678;28;20034;-53
2022/03/04 06:30:29;;;;;;;24.40;11.18;;;-1.00;99.90;;;;;;5012346;28;20045;-51
2022/03/04 06:33:42;;;;;;;32.42;11.55;;;-0.70;99.90;;;;;;5012289;28;20022;-56
2022/03/04 06:35:44;;;;;;;23.27;10.32;;;-0.20;99.90;;;;;;5009311;28;20057;-53
2022/03/04 06:38:10;;;;;;;23.35;10.57;;;0.30;99.90;;;;;;5013691;28;20017;-53
2022/03/04 06:40:36;;;;;;;29.33;12.02;;;0.80;99.90;;;;;;5013312;28;20057;-55
2022/03/04 06:43:02;;;;;;;31.60;11.20;;;1.20;99.90;;;;;;5012068;28;20056;-50
2022/03/04 06:45:28;;;;;;;29.33;11.93;;;1.60;99.90;;;;;;5013462;28;20080;-55
2022/03/04 06:47:54;;;;;;;25.50;10.57;;;2.20;99.90;;;;;;5012211;28;20026;-50
2022/03/04 06:50:19;;;;;;;33.60;12.57;;;2.80;99.90;;;;;;5013572;28;20084;-56
2022/03/04 06:52:45;;;;;;;29.73;12.15;;;3.30;99.90;;;;;;5013190;28;20025;-52
2022/03/04 06:55:36;;;;;;;32.92;13.45;;;3.40;99.90;;;;;;5011932;28;20022;-53
2022/03/04 06:58:02;;;;;;;29.40;13.73;;;3.90;99.90;;;;;;5013639;28;20029;-51
2022/03/04 07:00:28;;;;;;;27.17;12.25;;;4.40;99.90;;;;;;5011940;28;20481;-55
2022/03/04 07:02:54;;;;;;;30.55;12.63;;;4.80;99.90;;;;;;5013600;28;20026;-50
2022/03/04 07:05:23;;;;;;;28.40;12.13;;;5.10;99.90;;;;;;5013367;28;20384;-57
2022/03/04 07:07:49;;;;;;;26.77;13.25;;;5.40;99.90;;;;;;5011990;28;20045;-52
2022/03/04 07:10:15;;;;;;;35.95;13.68;;;5.90;99.90;;;;;;5013393;28;20030;-50
2022/03/04 07:12:41;;;;;;;32.97;14.30;;;5.80;99.90;;;;;;5013126;28;20105;-53
2022/03/04 07:15:08;;;;;;;39.10;14.88;;;6.20;99.90;;;;;;5013053;28;20068;-51
2022/03/04 07:17:33;;;;;;;35.65;14.25;;;6.10;99.90;;;;;;5013073;28;20026;-54
2022/03/04 07:19:59;;;;;;;37.25;14.98;;;5.90;99.90;;;;;;5012914;28;20049;-56
2022/03/04 07:22:25;;;;;;;41.83;16.92;;;5.50;99.90;;;;;;5013010;28;20028;-55
2022/03/04 07:24:50;;;;;;;36.47;15.40;;;5.70;99.90;;;;;;5013212;28;20109;-55
2022/03/04 07:27:16;;;;;;;38.83;16.48;;;5.80;99.90;;;;;;5011752;28;20030;-52
2022/03/04 07:29:42;;;;;;;36.22;15.05;;;5.30;99.90;;;;;;5013044;28;20026;-57
2022/03/04 07:32:08;;;;;;;36.90;16.05;;;5.40;99.90;;;;;;5013565;28;20098;-52
2022/03/04 07:34:34;;;;;;;40.65;16.70;;;5.60;99.90;;;;;;5016406;28;20025;-57
2022/03/04 07:36:59;;;;;;;35.42;15.65;;;5.60;99.90;;;;;;5016305;28;20182;-51
2022/03/04 07:39:25;;;;;;;44.53;16.75;;;5.10;99.90;;;;;;5016563;28;20036;-53
2022/03/04 07:41:51;;;;;;;45.03;17.63;;;4.90;99.90;;;;;;5016657;28;20030;-55
2022/03/04 07:44:19;;;;;;;52.00;19.65;;;4.70;99.90;;;;;;5015059;28;20057;-54
2022/03/04 07:46:45;;;;;;;53.70;21.10;;;4.50;99.90;;;;;;5014947;28;20045;-50
2022/03/04 07:49:11;;;;;;;50.03;19.13;;;4.00;99.90;;;;;;5015094;28;20033;-51
2022/03/04 07:51:37;;;;;;;54.72;20.73;;;3.60;99.90;;;;;;5016561;28;20030;-50
2022/03/04 07:54:02;;;;;;;58.83;20.60;;;3.40;99.90;;;;;;5015108;28;20075;-52
2022/03/04 07:56:28;;;;;;;51.03;18.63;;;3.90;99.90;;;;;;5015167;28;20073;-52
2022/03/04 07:58:54;;;;;;;53.30;18.77;;;4.00;99.90;;;;;;5016137;28;20156;-52
2022/03/04 08:01:20;;;;;;;50.50;19.17;;;4.30;99.90;;;;;;5015984;28;20022;-50
2022/03/04 08:03:46;;;;;;;50.67;19.50;;;4.80;99.90;;;;;;5014709;28;20112;-53
2022/03/04 08:06:12;;;;;;;53.55;19.73;;;5.20;99.90;;;;;;5014575;28;20112;-52
2022/03/04 08:08:38;;;;;;;51.70;19.88;;;5.70;99.90;;;;;;5014518;28;20108;-56
2022/03/04 08:11:05;;;;;;;56.47;20.38;;;5.90;99.90;;;;;;5015710;28;20113;-53
2022/03/04 08:13:30;;;;;;;47.33;20.08;;;6.00;99.90;;;;;;5016053;28;20026;-54
2022/03/04 08:15:56;;;;;;;47.20;19.85;;;6.50;99.90;;;;;;5014352;28;20028;-54
2022/03/04 08:18:21;;;;;;;52.45;20.13;;;6.30;99.90;;;;;;5014530;28;20116;-53
2022/03/04 08:20:47;;;;;;;48.15;19.85;;;6.30;99.90;;;;;;5014234;28;20125;-52
2022/03/04 08:23:13;;;;;;;46.97;18.80;;;6.70;99.90;;;;;;5015615;28;20021;-52
2022/03/04 08:25:39;;;;;;;49.05;18.77;;;6.80;99.90;;;;;;5014684;28;20079;-51
2022/03/04 08:28:05;;;;;;;55.13;20.77;;;7.40;99.90;;;;;;5015508;28;20034;-52
2022/03/04 08:30:32;;;;;;;53.67;20.92;;;7.90;99.90;;;;;;5015231;28;20034;-51
2022/03/04 08:32:57;;;;;;;56.53;21.85;;;8.40;99.90;;;;;;5015328;28;20022;-53
2022/03/04 08:35:23;;;;;;;42.08;17.90;;;7.60;99.90;;;;;;5014215;28;20044;-50
2022/03/04 08:37:49;;;;;;;50.75;20.33;;;7.30;99.90;;;;;;5015342;28;20026;-50
2022/03/04 08:40:15;;;;;;;55.10;21.35;;;7.00;99.90;;;;;;5013896;28;20034;-53
2022/03/04 08:42:42;;;;;;;54.42;21.63;;;7.10;99.90;;;;;;5015017;28;20168;-51
2022/03/04 08:45:09;;;;;;;57.17;21.85;;;7.30;99.90;;;;;;5013861;28;20033;-52
2022/03/04 08:47:36;;;;;;;53.92;21.88;;;8.10;99.90;;;;;;5014084;28;20105;-54
2022/03/04 08:50:02;;;;;;;56.50;21.67;;;7.60;99.90;;;;;;5014172;28;20026;-50
2022/03/04 08:52:28;;;;;;;48.30;18.67;;;7.00;99.90;;;;;;5013863;28;20026;-53
2022/03/04 08:54:54;;;;;;;41.67;17.90;;;7.10;99.90;;;;;;5013634;28;20053;-55
2022/03/04 08:57:20;;;;;;;48.45;19.67;;;7.50;99.90;;;;;;5013706;28;20488;-52
2022/03/04 08:59:45;;;;;;;48.38;21.67;;;8.40;99.90;;;;;;5014848;28;20017;-48
2022/03/04 09:02:11;;;;;;;47.88;21.02;;;9.20;99.90;;;;;;5013553;28;20018;-48
2022/03/04 09:04:37;;;;;;;55.17;21.73;;;9.10;99.90;;;;;;5013793;28;20028;-48
2022/03/04 09:07:04;;;;;;;52.92;23.50;;;9.30;99.90;;;;;;5013414;28;20117;-46
2022/03/04 09:09:30;;;;;;;54.30;23.15;;;9.00;99.90;;;;;;5013446;28;20029;-49
2022/03/04 09:11:55;;;;;;;51.38;22.20;;;9.70;99.90;;;;;;5012829;28;20030;-47
2022/03/04 09:14:23;;;;;;;48.45;23.17;;;9.90;99.90;;;;;;5013596;28;20026;-49
2022/03/04 09:16:49;;;;;;;50.63;22.35;;;10.20;99.90;;;;;;5013312;28;20041;-50
2022/03/04 09:19:15;;;;;;;53.72;22.63;;;10.20;99.90;;;;;;5013660;28;20022;-47
2022/03/04 09:21:41;;;;;;;41.03;19.70;;;10.50;99.90;;;;;;5014663;28;20025;-49
2022/03/04 09:24:07;;;;;;;51.67;26.42;;;12.00;99.90;;;;;;5014646;28;20026;-46
2022/03/04 09:26:33;;;;;;;53.67;23.38;;;12.70;99.90;;;;;;5013255;28;20042;-48
2022/03/04 09:28:58;;;;;;;52.03;22.08;;;12.50;99.90;;;;;;5014732;28;20392;-46
2022/03/04 09:31:24;;;;;;;48.78;20.58;;;12.50;99.90;;;;;;5014694;28;20021;-48
2022/03/04 09:33:50;;;;;;;50.58;23.08;;;13.00;99.90;;;;;;5013950;28;20022;-49
2022/03/04 09:36:16;;;;;;;49.85;24.55;;;13.60;97.60;;;;;;5014377;28;20032;-51
2022/03/04 09:38:42;;;;;;;50.95;23.55;;;12.70;96.10;;;;;;5014438;28;20044;-49
2022/03/04 09:41:08;;;;;;;52.55;22.85;;;12.30;97.00;;;;;;5012941;28;20105;-50
2022/03/04 09:43:35;;;;;;;48.47;22.80;;;12.10;99.10;;;;;;5014098;28;20022;-50
2022/03/04 09:46:00;;;;;;;45.80;22.13;;;13.50;96.70;;;;;;5012768;28;20229;-49
2022/03/04 09:48:26;;;;;;;51.15;24.23;;;13.40;95.70;;;;;;5014105;28;20061;-48
2022/03/04 09:50:52;;;;;;;51.33;24.10;;;14.60;93.80;;;;;;5013120;28;20125;-49
2022/03/04 09:53:18;;;;;;;54.47;25.55;;;14.80;91.70;;;;;;5013955;28;20030;-51
2022/03/04 09:55:45;;;;;;;54.42;24.33;;;13.90;92.00;;;;;;5012161;28;20032;-46
2022/03/04 09:58:15;;;;;;;43.90;22.30;;;14.00;93.30;;;;;;5013918;28;20117;-49
2022/03/04 10:00:43;;;;;;;55.10;25.95;;;13.70;95.40;;;;;;5013460;28;20030;-50
2022/03/04 10:03:42;;;;;;;48.55;23.65;;;14.70;91.50;;;;;;5013384;28;20029;-49
2022/03/04 10:06:08;;;;;;;46.13;23.80;;;15.00;89.10;;;;;;5013053;28;20028;-49
2022/03/04 10:08:38;;;;;;;45.75;24.90;;;15.60;91.00;;;;;;5012545;28;20026;-49
2022/03/04 10:11:03;;;;;;;47.47;23.67;;;16.40;88.50;;;;;;5012493;28;20018;-49
2022/03/04 10:13:50;;;;;;;48.28;23.80;;;15.60;90.00;;;;;;5013707;28;20071;-48
2022/03/04 10:16:25;;;;;;;52.35;24.80;;;15.70;85.10;;;;;;5013513;28;20116;-48
2022/03/04 10:19:23;;;;;;;46.53;23.52;;;14.20;87.20;;;;;;5013668;28;20100;-48
2022/03/04 10:21:53;;;;;;;53.67;23.88;;;14.20;91.30;;;;;;4970006;28;20036;-48
2022/03/04 10:24:41;;;;;;;49.92;22.98;;;14.40;88.90;;;;;;5012378;28;20045;-48
2022/03/04 10:27:12;;;;;;;42.67;20.55;;;14.40;89.80;;;;;;5013998;28;20029;-49
2022/03/04 10:29:39;;;;;;;;;;;14.20;89.30;;;;;;5012740;28;20037;-47
2022/03/04 10:32:07;;;;;;;41.00;18.42;;;12.40;90.90;;;;;;5013480;28;19906;-50
2022/03/04 10:34:48;;;;;;;44.28;21.70;;;11.80;95.50;;;;;;5012220;28;20089;-48
2022/03/04 10:37:15;;;;;;;40.72;18.80;;;12.30;94.30;;;;;;5013509;28;20033;-49
2022/03/04 10:40:05;;;;;;;45.78;19.00;;;12.60;93.20;;;;;;5012700;28;20030;-47
2022/03/04 10:42:50;;;;;;;44.75;19.45;;;12.60;93.90;;;;;;5012538;28;20018;-47
2022/03/04 10:45:23;;;;;;;46.15;19.90;;;11.90;92.80;;;;;;5013580;28;20044;-46
2022/03/04 10:47:53;;;;;;;46.63;20.58;;;11.30;96.10;;;;;;5013544;28;20097;-48
2022/03/04 10:50:26;;;;;;;49.08;21.17;;;11.40;94.20;;;;;;5012353;28;20117;-47
2022/03/04 10:52:54;;;;;;;44.72;20.40;;;11.70;94.40;;;;;;5012131;28;20030;-47
2022/03/04 10:55:43;;;;;;;48.40;20.10;;;11.50;93.70;;;;;;5013127;28;20050;-49
2022/03/04 10:58:33;;;;;;;43.85;19.08;;;10.30;95.40;;;;;;5012376;28;20026;-45
2022/03/04 11:01:18;;;;;;;47.45;19.33;;;10.20;97.70;;;;;;5013010;28;20052;-48
2022/03/04 11:03:44;;;;;;;52.83;20.65;;;10.10;97.50;;;;;;5013460;28;20014;-51
2022/03/04 11:06:13;;;;;;;47.08;20.73;;;10.00;97.00;;;;;;5013732;28;20029;-49
2022/03/04 11:08:39;;;;;;;49.70;19.67;;;9.70;96.00;;;;;;5017023;28;20026;-48
2022/03/04 11:11:07;;;;;;;57.75;21.13;;;9.20;97.90;;;;;;5017092;28;20018;-46
2022/03/04 11:13:36;;;;;;;49.88;19.52;;;9.00;97.90;;;;;;5016111;28;20109;-49
2022/03/04 11:16:06;;;;;;;53.33;21.17;;;8.60;99.90;;;;;;5015759;28;20025;-52
2022/03/04 11:18:34;;;;;;;55.03;19.08;;;8.10;99.80;;;;;;5016824;28;20018;-49
2022/03/04 11:21:01;;;;;;;46.95;20.00;;;8.40;99.90;;;;;;5016704;28;20025;-47
2022/03/04 11:23:29;;;;;;;42.92;17.13;;;8.40;99.90;;;;;;5016688;28;20029;-48
2022/03/04 11:26:00;;;;;;;41.55;17.83;;;8.70;99.90;;;;;;5015199;28;20076;-48
2022/03/04 11:28:41;;;;;;;46.67;19.20;;;8.70;99.90;;;;;;5016744;28;20061;-50
2022/03/04 11:31:08;;;;;;;45.42;17.65;;;9.20;99.90;;;;;;5016951;28;20026;-47
2022/03/04 11:33:42;;;;;;;43.83;18.05;;;9.20;99.90;;;;;;5015229;28;20026;-47
2022/03/04 11:36:15;;;;;;;54.03;18.52;;;9.30;99.90;;;;;;5015273;28;20116;-47
2022/03/04 11:38:47;;;;;;;49.97;18.83;;;9.40;99.90;;;;;;5016744;28;20025;-48
2022/03/04 11:41:15;;;;;;;;;;;8.90;99.90;;;;;;5016793;28;20265;-51
2022/03/04 11:43:50;;;;;;;49.83;18.00;;;8.50;99.90;;;;;;5016315;28;20339;-50
2022/03/04 11:46:22;;;;;;;43.33;17.38;;;8.20;99.90;;;;;;5016205;28;20037;-51
2022/03/04 11:49:08;;;;;;;44.53;17.23;;;8.00;99.90;;;;;;5016259;28;20030;-46
2022/03/04 11:51:34;;;;;;;46.40;18.58;;;8.00;99.90;;;;;;5014827;28;20116;-47
2022/03/04 11:54:25;;;;;;;40.13;15.75;;;8.50;99.90;;;;;;5016153;28;20093;-47
2022/03/04 11:56:52;;;;;;;42.13;17.65;;;8.70;99.90;;;;;;5016421;28;20022;-49
2022/03/04 11:59:21;;;;;;;47.67;19.17;;;9.10;99.90;;;;;;5015952;28;20021;-47
2022/03/04 12:01:47;;;;;;;44.17;18.63;;;8.80;99.90;;;;;;5014686;28;20052;-47
2022/03/04 12:04:15;;;;;;;45.95;17.73;;;8.20;99.90;;;;;;5015927;28;20029;-51
2022/03/04 12:06:42;;;;;;;45.35;16.77;;;7.80;99.90;;;;;;5014600;28;20029;-45
2022/03/04 12:09:27;;;;;;;51.50;19.08;;;7.70;99.90;;;;;;5015781;28;20018;-47
2022/03/04 12:12:13;;;;;;;42.58;17.30;;;7.80;99.90;;;;;;5014504;28;20530;-45
2022/03/04 12:14:47;;;;;;;46.70;19.73;;;7.90;99.90;;;;;;5015673;28;20060;-48
2022/03/04 12:17:13;;;;;;;49.03;20.02;;;7.90;99.90;;;;;;5015182;28;20037;-48
2022/03/04 12:19:39;;;;;;;45.92;18.95;;;7.70;99.90;;;;;;5014369;28;20084;-49
2022/03/04 12:22:06;;;;;;;52.30;19.10;;;7.60;99.90;;;;;;5014430;28;20484;-47
2022/03/04 12:24:34;;;;;;;44.75;17.60;;;7.50;99.90;;;;;;5015625;28;20060;-50
2022/03/04 12:27:01;;;;;;;43.17;18.48;;;7.60;99.90;;;;;;5013957;28;20062;-46
2022/03/04 12:29:44;;;;;;;48.45;19.10;;;7.70;99.90;;;;;;5014105;28;20033;-48
2022/03/04 12:32:10;;;;;;;45.90;17.40;;;7.70;99.90;;;;;;5015394;28;20100;-50
2022/03/04 12:34:41;;;;;;;43.72;17.83;;;7.90;99.90;;;;;;5014356;28;20026;-48
2022/03/04 12:37:14;;;;;;;45.00;16.95;;;8.00;99.90;;;;;;5015313;28;20029;-52
2022/03/04 12:39:40;;;;;;;45.90;16.83;;;8.00;99.90;;;;;;5015541;28;20034;-51
2022/03/04 12:42:09;;;;;;;47.65;18.30;;;8.30;99.90;;;;;;5015131;28;20030;-53